createdAt,value
2018-12-07T00:01:36.459Z,16.40
2018-12-07T00:04:04.386Z,15.50
2018-12-07T00:06:32.281Z,14.47
2018-12-07T00:09:00.158Z,14.33
2018-12-07T00:11:28.178Z,15.70
2018-12-07T00:13:56.042Z,14.43
2018-12-07T00:16:23.964Z,14.07
2018-12-07T00:18:51.860Z,13.20
2018-12-07T00:21:19.731Z,14.07
2018-12-07T00:23:47.593Z,14.40
2018-12-07T00:26:15.469Z,14.80
2018-12-07T00:28:43.322Z,13.60
2018-12-07T00:31:11.192Z,14.93
2018-12-07T00:33:39.075Z,15.00
2018-12-07T00:36:06.898Z,13.63
2018-12-07T00:38:35.730Z,13.93
2018-12-07T00:41:03.802Z,14.07
2018-12-07T00:43:31.618Z,14.57
2018-12-07T00:45:59.481Z,14.73
2018-12-07T00:48:27.313Z,15.33
2018-12-07T00:50:55.149Z,14.97
2018-12-07T00:53:23.094Z,15.07
2018-12-07T00:55:51.089Z,14.00
2018-12-07T00:58:19.023Z,15.70
2018-12-07T01:00:46.892Z,15.50
2018-12-07T01:03:14.768Z,14.60
2018-12-07T01:05:42.636Z,13.93
2018-12-07T01:08:10.592Z,13.97
2018-12-07T01:10:39.267Z,13.47
2018-12-07T01:13:07.891Z,13.57
2018-12-07T01:15:35.987Z,13.97
2018-12-07T01:18:03.862Z,14.63
2018-12-07T01:20:31.722Z,14.20
2018-12-07T01:22:59.582Z,15.17
2018-12-07T01:25:27.441Z,14.47
2018-12-07T01:27:55.950Z,15.37
2018-12-07T01:30:24.459Z,13.47
2018-12-07T01:32:52.329Z,14.30
2018-12-07T01:35:20.240Z,13.83
2018-12-07T01:37:48.113Z,14.03
2018-12-07T01:40:15.963Z,14.53
2018-12-07T01:42:44.255Z,15.30
2018-12-07T01:45:12.065Z,13.23
2018-12-07T01:47:45.112Z,14.50
2018-12-07T01:50:13.019Z,13.87
2018-12-07T01:52:40.849Z,15.20
2018-12-07T01:55:08.736Z,14.30
2018-12-07T01:57:36.581Z,14.40
2018-12-07T02:00:05.001Z,14.40
2018-12-07T02:02:32.845Z,13.40
2018-12-07T02:05:00.732Z,13.53
2018-12-07T02:07:30.616Z,13.50
2018-12-07T02:09:58.824Z,14.20
2018-12-07T02:12:26.667Z,14.37
2018-12-07T02:14:54.582Z,14.30
2018-12-07T02:17:22.496Z,13.70
2018-12-07T02:19:50.384Z,15.70
2018-12-07T02:22:18.265Z,15.70
2018-12-07T02:24:46.085Z,15.53
2018-12-07T02:27:13.931Z,15.67
2018-12-07T02:29:41.772Z,16.50
2018-12-07T02:32:09.623Z,16.50
2018-12-07T02:34:37.461Z,16.80
2018-12-07T02:37:10.915Z,18.10
2018-12-07T02:39:39.690Z,17.57
2018-12-07T02:42:08.526Z,16.43
2018-12-07T02:44:37.194Z,17.97
2018-12-07T02:47:06.297Z,19.27
2018-12-07T02:49:34.944Z,17.83
2018-12-07T02:52:03.304Z,18.27
2018-12-07T02:54:31.549Z,18.13
2018-12-07T02:57:00.167Z,17.90
2018-12-07T02:59:28.981Z,17.97
2018-12-07T03:01:57.654Z,18.77
2018-12-07T03:04:26.277Z,17.93
2018-12-07T03:06:55.083Z,18.57
2018-12-07T03:09:23.557Z,18.63
2018-12-07T03:11:51.461Z,17.23
2018-12-07T03:14:19.349Z,17.20
2018-12-07T03:16:47.207Z,18.47
2018-12-07T03:19:15.111Z,18.00
2018-12-07T03:21:42.981Z,17.07
2018-12-07T03:24:10.821Z,17.90
2018-12-07T03:26:38.706Z,17.77
2018-12-07T03:29:06.592Z,17.80
2018-12-07T03:31:34.526Z,17.47
2018-12-07T03:34:02.573Z,18.57
2018-12-07T03:36:30.873Z,17.77
2018-12-07T03:38:58.719Z,18.67
2018-12-07T03:41:26.604Z,19.23
2018-12-07T03:43:54.619Z,18.80
2018-12-07T03:46:22.476Z,20.00
2018-12-07T03:48:50.957Z,20.20
2018-12-07T03:51:18.965Z,19.20
2018-12-07T03:53:46.801Z,20.90
2018-12-07T03:56:14.845Z,19.27
2018-12-07T03:58:42.673Z,19.87
2018-12-07T04:01:10.529Z,21.37
2018-12-07T04:03:38.409Z,21.70
2018-12-07T04:06:06.247Z,21.83
2018-12-07T04:08:34.086Z,20.17
2018-12-07T04:11:01.944Z,21.20
2018-12-07T04:13:29.780Z,19.07
2018-12-07T04:15:57.622Z,19.77
2018-12-07T04:18:25.463Z,20.27
2018-12-07T04:20:53.356Z,21.50
2018-12-07T04:23:21.273Z,20.43
2018-12-07T04:25:49.210Z,21.13
2018-12-07T04:28:17.287Z,21.37
2018-12-07T04:30:45.142Z,23.13
2018-12-07T04:33:13.027Z,21.40
2018-12-07T04:35:40.962Z,23.53
2018-12-07T04:38:09.110Z,20.93
2018-12-07T04:40:36.971Z,20.60
2018-12-07T04:43:04.874Z,20.00
2018-12-07T04:45:32.768Z,22.33
2018-12-07T04:48:00.646Z,22.80
2018-12-07T04:50:28.486Z,24.07
2018-12-07T04:52:56.316Z,21.90
2018-12-07T04:55:24.209Z,22.07
2018-12-07T04:57:52.702Z,22.43
2018-12-07T05:00:21.352Z,23.17
2018-12-07T05:02:49.967Z,23.90
2018-12-07T05:05:18.382Z,23.13
2018-12-07T05:07:47.210Z,22.67
2018-12-07T05:10:15.675Z,22.13
2018-12-07T05:12:44.150Z,20.77
2018-12-07T05:15:12.478Z,20.90
2018-12-07T05:17:40.387Z,21.57
2018-12-07T05:20:08.401Z,20.10
2018-12-07T05:22:36.276Z,22.77
2018-12-07T05:25:04.294Z,21.30
2018-12-07T05:27:32.202Z,20.60
2018-12-07T05:30:00.126Z,20.60
2018-12-07T05:32:27.968Z,19.07
2018-12-07T05:34:56.361Z,21.13
2018-12-07T05:37:24.994Z,19.60
2018-12-07T05:39:52.871Z,19.80
2018-12-07T05:42:20.732Z,19.60
2018-12-07T05:44:48.575Z,17.17
2018-12-07T05:47:16.467Z,18.30
2018-12-07T05:49:44.570Z,17.50
2018-12-07T05:52:12.518Z,19.87
2018-12-07T05:54:40.444Z,18.70
2018-12-07T05:57:08.312Z,19.03
2018-12-07T05:59:36.608Z,18.83
2018-12-07T06:02:04.473Z,16.57
2018-12-07T06:04:32.367Z,18.47
2018-12-07T06:07:00.234Z,18.30
2018-12-07T06:09:28.065Z,19.07
2018-12-07T06:11:55.919Z,19.30
2018-12-07T06:14:23.825Z,18.93
2018-12-07T06:16:51.690Z,18.83
2018-12-07T06:19:19.581Z,17.73
2018-12-07T06:21:47.442Z,17.70
2018-12-07T06:24:15.450Z,19.13
2018-12-07T06:26:43.334Z,19.00
2018-12-07T06:29:11.213Z,17.67
2018-12-07T06:31:39.290Z,18.30
2018-12-07T06:34:07.238Z,16.53
2018-12-07T06:36:35.173Z,17.43
2018-12-07T06:39:03.419Z,17.50
2018-12-07T06:41:31.282Z,16.67
2018-12-07T06:43:59.173Z,16.47
2018-12-07T06:46:26.993Z,18.37
2018-12-07T06:49:05.221Z,17.03
2018-12-07T06:51:33.177Z,18.13
2018-12-07T06:54:01.266Z,15.77
2018-12-07T06:56:29.106Z,17.73
2018-12-07T06:58:57.002Z,17.83
2018-12-07T07:01:24.866Z,17.60
2018-12-07T07:03:53.434Z,16.07
2018-12-07T07:06:21.287Z,16.53
2018-12-07T07:08:49.181Z,15.83
2018-12-07T07:11:17.026Z,16.67
2018-12-07T07:13:45.067Z,16.40
2018-12-07T07:16:12.918Z,15.87
2018-12-07T07:18:40.782Z,15.30
2018-12-07T07:21:08.669Z,15.90
2018-12-07T07:23:36.525Z,52.67
2018-12-07T07:26:04.410Z,16.60
2018-12-07T07:29:34.857Z,17.17
2018-12-07T07:32:02.809Z,16.80
2018-12-07T07:34:30.746Z,17.07
2018-12-07T07:36:59.691Z,16.33
2018-12-07T07:39:28.295Z,15.87
2018-12-07T07:41:56.698Z,15.60
2018-12-07T07:44:25.166Z,14.80
2018-12-07T07:46:53.353Z,15.37
2018-12-07T07:49:21.193Z,13.83
2018-12-07T07:51:49.042Z,14.83
2018-12-07T07:54:16.933Z,12.80
2018-12-07T07:56:44.799Z,13.30
2018-12-07T07:59:12.653Z,13.27
2018-12-07T08:01:40.487Z,13.03
2018-12-07T08:04:08.337Z,13.13
2018-12-07T08:06:36.278Z,13.70
2018-12-07T08:09:06.322Z,13.40
2018-12-07T08:11:34.158Z,13.43
2018-12-07T08:14:02.046Z,12.57
2018-12-07T08:16:29.970Z,13.23
2018-12-07T08:18:57.828Z,12.87
2018-12-07T08:21:25.701Z,11.90
2018-12-07T08:23:53.590Z,12.53
2018-12-07T08:26:21.471Z,12.50
2018-12-07T08:28:49.422Z,13.37
2018-12-07T08:31:17.292Z,13.17
2018-12-07T08:33:45.231Z,12.87
2018-12-07T08:36:13.080Z,12.53
2018-12-07T08:38:40.984Z,10.97
2018-12-07T08:41:08.886Z,11.40
2018-12-07T08:43:36.736Z,11.63
2018-12-07T08:46:04.633Z,10.77
2018-12-07T08:48:32.475Z,9.40
2018-12-07T08:51:00.356Z,10.03
2018-12-07T08:53:28.190Z,10.40
2018-12-07T08:55:56.065Z,10.37
2018-12-07T08:58:23.923Z,10.03
2018-12-07T09:00:51.799Z,9.30
2018-12-07T09:03:19.726Z,10.47
2018-12-07T09:05:47.578Z,11.00
2018-12-07T09:08:15.683Z,10.70
2018-12-07T09:10:43.927Z,9.60
2018-12-07T09:13:11.977Z,10.30
2018-12-07T09:15:39.917Z,11.00
2018-12-07T09:18:07.902Z,10.97
2018-12-07T09:20:35.823Z,9.90
2018-12-07T09:23:03.858Z,10.30
2018-12-07T09:25:31.797Z,9.47
2018-12-07T09:27:59.807Z,9.07
2018-12-07T09:30:27.781Z,10.13
2018-12-07T09:32:55.651Z,9.00
2018-12-07T09:35:23.617Z,9.20
2018-12-07T09:37:51.462Z,8.77
2018-12-07T09:40:19.294Z,8.77
2018-12-07T09:42:47.702Z,10.30
2018-12-07T09:45:15.527Z,8.50
2018-12-07T09:47:43.423Z,8.87
2018-12-07T09:50:11.298Z,9.23
2018-12-07T09:52:39.160Z,8.23
2018-12-07T09:55:07.055Z,8.70
2018-12-07T09:57:36.420Z,8.37
2018-12-07T10:00:05.300Z,8.43
2018-12-07T10:02:33.372Z,7.53
2018-12-07T10:05:01.234Z,7.93
2018-12-07T10:07:29.308Z,8.47
2018-12-07T10:09:57.848Z,8.03
2018-12-07T10:12:26.162Z,6.90
2018-12-07T10:14:54.225Z,5.60
2018-12-07T10:17:22.070Z,7.20
2018-12-07T10:19:50.008Z,5.83
2018-12-07T10:22:18.751Z,4.83
2018-12-07T10:24:46.598Z,5.60
2018-12-07T10:27:14.496Z,4.83
2018-12-07T10:29:42.489Z,4.70
2018-12-07T10:32:10.316Z,6.07
2018-12-07T10:34:38.354Z,6.20
2018-12-07T10:37:06.243Z,4.70
2018-12-07T10:39:34.284Z,4.70
2018-12-07T10:42:02.132Z,4.43
2018-12-07T10:44:29.946Z,4.03
2018-12-07T10:46:58.496Z,3.13
2018-12-07T10:49:27.110Z,3.60
2018-12-07T10:51:55.902Z,2.83
2018-12-07T10:54:24.365Z,2.07
2018-12-07T10:56:52.253Z,1.83
2018-12-07T10:59:20.885Z,1.00
2018-12-07T11:01:54.373Z,0.80
2018-12-07T11:04:27.929Z,1.30
2018-12-07T11:07:01.672Z,1.20
2018-12-07T11:09:34.567Z,0.80
2018-12-07T11:12:08.969Z,0.80
2018-12-07T11:14:42.275Z,0.80
2018-12-07T11:17:15.939Z,0.50
2018-12-07T11:19:49.021Z,0.90
2018-12-07T11:22:22.393Z,0.60
2018-12-07T11:24:55.677Z,0.97
2018-12-07T11:27:28.908Z,0.87
2018-12-07T11:30:02.329Z,0.73
2018-12-07T11:32:35.485Z,0.63
2018-12-07T11:35:09.079Z,0.90
2018-12-07T11:37:36.998Z,0.50
2018-12-07T11:40:05.168Z,0.83
2018-12-07T11:42:33.274Z,0.70
2018-12-07T11:45:01.813Z,2.03
2018-12-07T11:47:29.761Z,0.93
2018-12-07T11:49:57.586Z,0.87
2018-12-07T11:52:25.405Z,0.80
2018-12-07T11:54:53.251Z,0.93
2018-12-07T11:57:21.136Z,0.70
2018-12-07T11:59:49.016Z,0.60
2018-12-07T12:02:17.514Z,0.60
2018-12-07T12:04:46.186Z,0.60
2018-12-07T12:07:14.957Z,0.70
2018-12-07T12:09:43.423Z,0.87
2018-12-07T12:12:12.205Z,0.60
2018-12-07T12:14:40.713Z,0.87
2018-12-07T12:17:09.358Z,0.73
2018-12-07T12:19:37.245Z,0.63
2018-12-07T12:22:05.127Z,0.70
2018-12-07T12:24:33.836Z,0.93
2018-12-07T12:27:01.695Z,0.70
2018-12-07T12:29:29.567Z,0.70
2018-12-07T12:31:57.414Z,0.70
2018-12-07T12:34:25.319Z,0.80
2018-12-07T12:36:53.186Z,0.70
2018-12-07T12:39:21.265Z,0.70
2018-12-07T12:41:49.186Z,0.43
2018-12-07T12:44:17.104Z,0.70
2018-12-07T12:46:44.952Z,0.93
2018-12-07T12:49:12.822Z,0.80
2018-12-07T12:51:40.713Z,0.80
2018-12-07T12:54:08.558Z,0.60
2018-12-07T12:56:36.369Z,0.40
2018-12-07T12:59:04.214Z,0.80
2018-12-07T13:01:32.049Z,0.60
2018-12-07T13:03:59.909Z,0.60
2018-12-07T13:06:27.744Z,1.20
2018-12-07T13:08:55.595Z,0.80
2018-12-07T13:11:23.562Z,1.17
2018-12-07T13:13:51.474Z,1.27
2018-12-07T13:16:19.334Z,1.30
2018-12-07T13:18:47.256Z,1.30
2018-12-07T13:21:15.144Z,1.30
2018-12-07T13:23:43.705Z,1.50
2018-12-07T13:26:12.115Z,1.53
2018-12-07T13:28:40.754Z,1.57
2018-12-07T13:31:09.381Z,1.53
2018-12-07T13:33:38.027Z,1.90
2018-12-07T13:36:05.853Z,2.13
2018-12-07T13:38:33.831Z,2.40
2018-12-07T13:41:01.839Z,2.40
2018-12-07T13:43:29.945Z,2.70
2018-12-07T13:45:59.263Z,2.93
2018-12-07T13:48:28.134Z,2.73
2018-12-07T13:50:56.745Z,2.80
2018-12-07T13:53:25.587Z,3.10
2018-12-07T13:55:54.126Z,3.30
2018-12-07T13:58:22.960Z,3.50
2018-12-07T14:00:51.508Z,2.77
2018-12-07T14:03:21.357Z,3.47
2018-12-07T14:05:50.246Z,2.83
2018-12-07T14:08:18.869Z,2.50
2018-12-07T14:10:47.154Z,2.80
2018-12-07T14:13:15.212Z,3.03
2018-12-07T14:15:43.150Z,3.60
2018-12-07T14:18:11.282Z,3.30
2018-12-07T14:20:40.225Z,3.30
2018-12-07T14:23:08.521Z,3.10
2018-12-07T14:25:36.801Z,3.17
2018-12-07T14:28:05.637Z,3.17
2018-12-07T14:30:35.940Z,2.73
2018-12-07T14:33:04.755Z,2.63
2018-12-07T14:35:33.537Z,2.30
2018-12-07T14:38:02.290Z,2.17
2018-12-07T14:40:30.670Z,2.20
2018-12-07T14:42:59.623Z,2.33
2018-12-07T14:45:28.076Z,2.37
2018-12-07T14:47:56.296Z,2.07
2018-12-07T14:50:24.353Z,2.13
2018-12-07T14:52:52.238Z,2.17
2018-12-07T14:55:20.365Z,2.50
2018-12-07T14:57:48.304Z,2.30
2018-12-07T15:00:16.328Z,2.40
2018-12-07T15:02:44.463Z,1.93
2018-12-07T15:05:12.885Z,2.07
2018-12-07T15:07:40.928Z,2.40
2018-12-07T15:10:09.559Z,2.00
2018-12-07T15:12:38.195Z,1.93
2018-12-07T15:15:06.795Z,2.60
2018-12-07T15:17:35.680Z,2.10
2018-12-07T15:20:04.443Z,2.27
2018-12-07T15:22:32.983Z,1.77
2018-12-07T15:25:01.845Z,1.90
2018-12-07T15:27:30.827Z,1.93
2018-12-07T15:29:59.327Z,2.13
2018-12-07T15:32:27.225Z,1.70
2018-12-07T15:34:55.328Z,1.30
2018-12-07T15:37:23.814Z,0.83
2018-12-07T15:39:52.703Z,1.17
2018-12-07T15:42:21.471Z,0.90
2018-12-07T15:44:50.142Z,1.27
2018-12-07T15:47:19.094Z,1.30
2018-12-07T15:49:47.823Z,1.30
2018-12-07T15:52:16.443Z,1.33
2018-12-07T15:54:45.196Z,1.67
2018-12-07T15:57:13.942Z,1.23
2018-12-07T15:59:43.066Z,1.37
2018-12-07T16:02:11.406Z,1.90
2018-12-07T16:04:39.808Z,1.20
2018-12-07T16:07:07.824Z,1.40
2018-12-07T16:09:35.945Z,1.33
2018-12-07T16:12:04.216Z,1.60
2018-12-07T16:14:33.009Z,1.57
2018-12-07T16:17:01.466Z,1.40
2018-12-07T16:19:30.387Z,1.30
2018-12-07T16:21:59.735Z,1.30
2018-12-07T16:24:28.457Z,1.47
2018-12-07T16:26:57.145Z,1.47
2018-12-07T16:29:25.748Z,1.47
2018-12-07T16:31:54.574Z,2.13
2018-12-07T16:34:23.358Z,1.50
2018-12-07T16:36:52.105Z,1.50
2018-12-07T16:39:21.363Z,1.30
2018-12-07T16:41:50.164Z,1.50
2018-12-07T16:44:18.769Z,1.43
2018-12-07T16:46:47.883Z,1.63
2018-12-07T16:49:17.384Z,1.63
2018-12-07T16:51:46.318Z,1.40
2018-12-07T16:54:14.364Z,1.57
2018-12-07T16:56:42.275Z,1.67
2018-12-07T16:59:10.296Z,1.63
2018-12-07T17:01:38.247Z,1.60
2018-12-07T17:04:06.328Z,1.67
2018-12-07T17:06:34.626Z,1.60
2018-12-07T17:09:03.557Z,1.50
2018-12-07T17:11:32.306Z,1.73
2018-12-07T17:14:01.034Z,1.77
2018-12-07T17:16:30.461Z,1.73
2018-12-07T17:18:59.282Z,1.50
2018-12-07T17:21:27.864Z,1.90
2018-12-07T17:23:56.560Z,1.80
2018-12-07T17:26:24.692Z,1.57
2018-12-07T17:28:52.787Z,1.40
2018-12-07T17:31:20.741Z,1.80
2018-12-07T17:33:48.845Z,1.50
2018-12-07T17:36:17.366Z,1.83
2018-12-07T17:38:45.944Z,1.80
2018-12-07T17:41:14.461Z,1.83
2018-12-07T17:43:43.185Z,1.67
2018-12-07T17:46:11.976Z,1.70
2018-12-07T17:48:40.844Z,2.17
2018-12-07T17:51:09.393Z,2.17
2018-12-07T17:53:38.072Z,2.00
2018-12-07T17:56:06.852Z,2.00
2018-12-07T17:58:35.643Z,2.00
2018-12-07T18:01:03.589Z,2.00
2018-12-07T18:03:32.099Z,2.20
2018-12-07T18:06:01.058Z,2.20
2018-12-07T18:08:30.562Z,1.93
2018-12-07T18:11:00.890Z,1.80
2018-12-07T18:13:31.112Z,1.60
2018-12-07T18:15:59.883Z,2.20
2018-12-07T18:18:28.670Z,2.30
2018-12-07T18:20:56.883Z,2.47
2018-12-07T18:23:26.234Z,2.00
2018-12-07T18:25:55.090Z,2.10
2018-12-07T18:28:23.666Z,2.30
2018-12-07T18:30:52.362Z,2.13
2018-12-07T18:33:21.347Z,2.30
2018-12-07T18:35:49.945Z,1.63
2018-12-07T18:38:18.567Z,1.53
2018-12-07T18:40:47.414Z,1.97
2018-12-07T18:43:15.862Z,1.40
2018-12-07T18:45:44.970Z,1.37
2018-12-07T18:48:13.883Z,1.17
2018-12-07T18:50:42.603Z,1.00
2018-12-07T18:53:11.733Z,1.00
2018-12-07T18:55:40.916Z,1.00
2018-12-07T18:58:10.965Z,1.00
2018-12-07T19:00:39.717Z,1.13
2018-12-07T19:03:08.793Z,1.27
2018-12-07T19:05:37.776Z,1.20
2018-12-07T19:08:06.825Z,1.40
2018-12-07T19:10:35.888Z,1.20
2018-12-07T19:13:04.717Z,0.97
2018-12-07T19:15:34.011Z,1.20
2018-12-07T19:18:03.235Z,1.17
2018-12-07T19:20:32.272Z,1.30
2018-12-07T19:23:01.021Z,1.07
2018-12-07T19:25:29.800Z,1.20
2018-12-07T19:27:59.808Z,1.20
2018-12-07T19:30:28.694Z,1.23
2018-12-07T19:32:57.392Z,1.53
2018-12-07T19:35:26.031Z,1.27
2018-12-07T19:37:54.753Z,1.90
2018-12-07T19:40:23.611Z,1.10
2018-12-07T19:42:51.546Z,1.43
2018-12-07T19:45:19.640Z,1.30
2018-12-07T19:47:48.294Z,1.23
2018-12-07T19:50:17.102Z,1.67
2018-12-07T19:52:45.497Z,1.57
2018-12-07T19:55:14.459Z,1.60
2018-12-07T19:57:43.507Z,1.10
2018-12-07T20:00:13.920Z,1.23
2018-12-07T20:02:43.258Z,1.13
2018-12-07T20:05:12.095Z,1.40
2018-12-07T20:07:40.891Z,1.17
2018-12-07T20:10:09.744Z,1.40
2018-12-07T20:12:38.527Z,1.37
2018-12-07T20:15:07.738Z,1.43
2018-12-07T20:17:36.798Z,1.30
2018-12-07T20:20:05.694Z,1.70
2018-12-07T20:22:35.201Z,1.50
2018-12-07T20:25:03.266Z,1.73
2018-12-07T20:27:32.328Z,1.50
2018-12-07T20:30:01.068Z,1.60
2018-12-07T20:32:29.904Z,1.60
2018-12-07T20:34:59.157Z,1.70
2018-12-07T20:37:27.831Z,1.43
2018-12-07T20:39:56.501Z,1.90
2018-12-07T20:42:25.612Z,1.90
2018-12-07T20:44:53.883Z,1.90
2018-12-07T20:47:24.931Z,2.07
2018-12-07T20:49:53.390Z,1.70
2018-12-07T20:52:22.514Z,1.90
2018-12-07T20:54:51.337Z,2.13
2018-12-07T20:57:20.325Z,1.50
2018-12-07T20:59:48.905Z,1.80
2018-12-07T21:02:17.531Z,1.83
2018-12-07T21:04:46.207Z,2.03
2018-12-07T21:07:26.872Z,1.70
2018-12-07T21:10:16.339Z,2.10
2018-12-07T21:13:25.898Z,2.00
2018-12-07T21:15:54.173Z,2.60
2018-12-07T21:18:22.617Z,1.83
2018-12-07T21:20:50.645Z,1.40
2018-12-07T21:23:18.910Z,1.80
2018-12-07T21:25:47.193Z,1.93
2018-12-07T21:28:15.145Z,2.27
2018-12-07T21:30:50.486Z,1.93
2018-12-07T21:33:20.455Z,2.10
2018-12-07T21:36:26.304Z,1.80
2018-12-07T21:38:54.198Z,1.80
2018-12-07T21:41:22.096Z,1.83
2018-12-07T21:43:50.104Z,2.23
2018-12-07T21:46:18.791Z,1.70
2018-12-07T21:48:47.446Z,1.60
2018-12-07T21:51:22.476Z,1.67
2018-12-07T21:53:50.455Z,1.47
2018-12-07T21:56:18.398Z,2.37
2018-12-07T21:58:46.653Z,1.57
2018-12-07T22:01:14.608Z,1.77
2018-12-07T22:03:42.794Z,2.43
2018-12-07T22:06:11.039Z,1.43
2018-12-07T22:08:39.143Z,0.70
2018-12-07T22:11:07.898Z,0.70
2018-12-07T22:13:36.258Z,0.87
2018-12-07T22:16:04.430Z,1.27
2018-12-07T22:18:32.384Z,1.30
2018-12-07T22:21:02.107Z,2.30
2018-12-07T22:23:30.525Z,1.20
2018-12-07T22:25:59.564Z,1.00
2018-12-07T22:28:28.192Z,1.00
2018-12-07T22:30:56.397Z,1.20
2018-12-07T22:33:24.504Z,1.10
2018-12-07T22:35:52.567Z,1.80
2018-12-07T22:38:20.868Z,1.47
2018-12-07T22:40:49.222Z,1.40
2018-12-07T22:43:17.178Z,1.40
2018-12-07T22:45:45.268Z,1.23
2018-12-07T22:48:13.373Z,1.30
2018-12-07T22:50:41.337Z,1.33
2018-12-07T22:53:09.251Z,1.50
2018-12-07T22:55:37.181Z,1.03
2018-12-07T22:58:05.038Z,1.47
2018-12-07T23:00:32.957Z,1.70
2018-12-07T23:03:00.988Z,1.50
2018-12-07T23:05:29.280Z,1.37
2018-12-07T23:07:57.102Z,1.53
2018-12-07T23:10:24.958Z,1.37
2018-12-07T23:12:52.834Z,1.93
2018-12-07T23:15:20.716Z,1.70
2018-12-07T23:17:48.554Z,1.80
2018-12-07T23:20:16.417Z,1.47
2018-12-07T23:22:48.947Z,2.30
2018-12-07T23:25:14.155Z,1.80
2018-12-07T23:27:42.068Z,1.43
2018-12-07T23:30:09.950Z,2.00
2018-12-07T23:32:38.002Z,1.60
2018-12-07T23:35:06.536Z,2.03
2018-12-07T23:37:34.404Z,1.87
2018-12-07T23:40:02.314Z,1.70
2018-12-07T23:42:30.374Z,2.40
2018-12-07T23:44:58.303Z,1.60
2018-12-07T23:47:26.414Z,2.10
2018-12-07T23:49:54.254Z,2.33
2018-12-07T23:52:22.101Z,1.90
2018-12-07T23:54:49.950Z,1.93
2018-12-07T23:57:17.807Z,2.83
2018-12-07T23:59:45.666Z,2.00
